createdAt,value
2018-12-29T00:02:24.121Z,16.27
2018-12-29T00:05:05.240Z,15.80
2018-12-29T00:07:46.305Z,16.02
2018-12-29T00:10:27.445Z,16.47
2018-12-29T00:13:08.429Z,16.65
2018-12-29T00:15:49.210Z,18.02
2018-12-29T00:18:30.320Z,18.87
2018-12-29T00:21:11.196Z,17.50
2018-12-29T00:23:52.058Z,17.42
2018-12-29T00:26:32.827Z,17.35
2018-12-29T00:29:13.687Z,16.87
2018-12-29T00:31:54.742Z,17.17
2018-12-29T00:34:35.815Z,16.77
2018-12-29T00:37:16.370Z,16.65
2018-12-29T00:39:57.096Z,16.73
2018-12-29T00:43:16.324Z,16.73
2018-12-29T00:45:57.321Z,16.12
2018-12-29T00:48:38.296Z,16.07
2018-12-29T00:51:19.508Z,15.35
2018-12-29T00:54:00.057Z,15.48
2018-12-29T00:56:40.799Z,16.62
2018-12-29T00:59:21.676Z,14.63
2018-12-29T01:02:02.735Z,14.50
2018-12-29T01:04:43.909Z,14.55
2018-12-29T01:07:25.092Z,14.70
2018-12-29T01:10:06.211Z,14.65
2018-12-29T01:12:47.112Z,15.23
2018-12-29T01:15:27.969Z,14.70
2018-12-29T01:18:09.068Z,14.38
2018-12-29T01:20:50.213Z,14.87
2018-12-29T01:23:31.749Z,13.97
2018-12-29T01:26:12.200Z,14.87
2018-12-29T01:28:53.154Z,14.15
2018-12-29T01:31:34.233Z,14.25
2018-12-29T01:34:15.229Z,13.57
2018-12-29T01:36:56.012Z,14.00
2018-12-29T01:39:36.838Z,15.40
2018-12-29T01:42:17.672Z,16.00
2018-12-29T01:44:58.477Z,17.90
2018-12-29T01:47:39.092Z,17.97
2018-12-29T01:50:19.792Z,19.45
2018-12-29T01:53:00.421Z,16.67
2018-12-29T01:55:41.692Z,17.70
2018-12-29T01:58:22.707Z,18.32
2018-12-29T02:01:03.123Z,17.37
2018-12-29T02:03:43.960Z,18.60
2018-12-29T02:06:25.045Z,18.95
2018-12-29T02:09:06.031Z,20.05
2018-12-29T02:11:46.840Z,20.68
2018-12-29T02:14:27.496Z,23.92
2018-12-29T02:17:08.393Z,24.77
2018-12-29T02:19:49.217Z,26.17
2018-12-29T02:22:30.588Z,27.05
2018-12-29T02:25:11.857Z,27.85
2018-12-29T02:27:52.988Z,28.85
2018-12-29T02:30:33.848Z,29.07
2018-12-29T02:33:14.820Z,30.25
2018-12-29T02:35:55.950Z,29.12
2018-12-29T02:38:36.920Z,30.03
2018-12-29T02:41:17.646Z,27.22
2018-12-29T02:43:58.212Z,29.10
2018-12-29T02:46:39.203Z,26.15
2018-12-29T02:49:20.119Z,29.10
2018-12-29T02:52:01.053Z,27.93
2018-12-29T02:54:41.817Z,28.47
2018-12-29T02:57:22.517Z,28.80
2018-12-29T03:00:03.781Z,28.70
2018-12-29T03:02:44.997Z,28.40
2018-12-29T03:05:26.136Z,28.83
2018-12-29T03:08:06.894Z,28.38
2018-12-29T03:10:47.929Z,28.92
2018-12-29T03:13:28.616Z,27.27
2018-12-29T03:16:09.752Z,28.65
2018-12-29T03:18:50.709Z,28.65
2018-12-29T03:21:31.888Z,28.52
2018-12-29T03:24:12.810Z,28.17
2018-12-29T03:26:53.860Z,29.75
2018-12-29T03:29:34.986Z,30.00
2018-12-29T03:32:16.023Z,30.37
2018-12-29T03:34:56.784Z,29.12
2018-12-29T03:37:37.857Z,28.42
2018-12-29T03:40:19.016Z,28.23
2018-12-29T03:42:59.892Z,28.55
2018-12-29T03:45:40.305Z,28.83
2018-12-29T03:48:21.468Z,28.42
2018-12-29T03:51:02.301Z,26.97
2018-12-29T03:53:42.908Z,27.30
2018-12-29T03:56:23.651Z,27.02
2018-12-29T03:59:04.510Z,27.65
2018-12-29T04:01:45.131Z,28.73
2018-12-29T04:04:26.124Z,28.00
2018-12-29T04:07:07.246Z,28.32
2018-12-29T04:09:48.351Z,27.48
2018-12-29T04:12:29.349Z,27.65
2018-12-29T04:15:10.397Z,27.45
2018-12-29T04:17:51.334Z,27.93
2018-12-29T04:20:32.296Z,27.73
2018-12-29T04:23:15.071Z,28.05
2018-12-29T04:25:56.246Z,27.33
2018-12-29T04:28:37.024Z,28.20
2018-12-29T04:31:17.880Z,28.95
2018-12-29T04:33:58.911Z,29.18
2018-12-29T04:36:39.540Z,28.60
2018-12-29T04:39:20.312Z,27.15
2018-12-29T04:42:01.341Z,26.25
2018-12-29T04:44:42.129Z,26.15
2018-12-29T04:47:23.228Z,26.93
2018-12-29T04:50:04.324Z,27.22
2018-12-29T04:52:45.108Z,28.10
2018-12-29T04:55:25.858Z,26.52
2018-12-29T04:58:06.500Z,26.40
2018-12-29T05:00:47.689Z,27.32
2018-12-29T05:03:28.912Z,25.37
2018-12-29T05:06:09.777Z,25.10
2018-12-29T05:08:50.273Z,26.47
2018-12-29T05:11:31.036Z,25.88
2018-12-29T05:14:11.921Z,25.82
2018-12-29T05:16:52.473Z,25.50
2018-12-29T05:19:33.204Z,26.25
2018-12-29T05:22:14.084Z,25.75
2018-12-29T05:24:54.864Z,26.23
2018-12-29T05:27:35.763Z,26.52
2018-12-29T05:30:16.718Z,26.60
2018-12-29T05:32:57.708Z,27.60
2018-12-29T05:35:38.698Z,27.52
2018-12-29T05:38:19.380Z,27.70
2018-12-29T05:41:00.473Z,27.10
2018-12-29T05:43:41.305Z,28.17
2018-12-29T05:46:21.920Z,27.67
2018-12-29T05:49:02.948Z,27.53
2018-12-29T05:51:44.073Z,29.05
2018-12-29T05:54:25.269Z,26.97
2018-12-29T05:57:06.264Z,26.77
2018-12-29T05:59:47.360Z,27.22
2018-12-29T06:02:28.316Z,26.77
2018-12-29T06:05:09.236Z,27.98
2018-12-29T06:07:49.845Z,28.60
2018-12-29T06:10:30.721Z,27.60
2018-12-29T06:13:11.268Z,29.57
2018-12-29T06:15:52.124Z,28.65
2018-12-29T06:18:32.863Z,28.43
2018-12-29T06:21:13.704Z,30.57
2018-12-29T06:23:54.669Z,30.35
2018-12-29T06:26:35.183Z,31.68
2018-12-29T06:29:16.009Z,30.30
2018-12-29T06:31:56.729Z,31.05
2018-12-29T06:34:37.624Z,30.40
2018-12-29T06:37:18.623Z,31.10
2018-12-29T06:39:59.245Z,29.80
2018-12-29T06:42:40.254Z,31.07
2018-12-29T06:45:21.187Z,32.40
2018-12-29T06:48:02.153Z,30.55
2018-12-29T06:50:43.004Z,31.05
2018-12-29T06:53:23.653Z,30.67
2018-12-29T06:56:04.349Z,29.92
2018-12-29T06:58:45.428Z,29.90
2018-12-29T07:01:26.208Z,30.17
2018-12-29T07:04:07.292Z,29.27
2018-12-29T07:06:48.256Z,28.80
2018-12-29T07:09:29.179Z,30.72
2018-12-29T07:12:09.781Z,30.12
2018-12-29T07:14:51.008Z,28.55
2018-12-29T07:17:31.713Z,27.90
2018-12-29T07:20:12.432Z,28.02
2018-12-29T07:22:54.944Z,26.60
2018-12-29T07:25:36.209Z,27.80
2018-12-29T07:28:17.452Z,28.27
2018-12-29T07:30:58.373Z,27.55
2018-12-29T07:33:39.374Z,27.65
2018-12-29T07:36:20.436Z,28.00
2018-12-29T07:39:01.195Z,28.32
2018-12-29T07:41:42.232Z,27.95
2018-12-29T07:44:23.588Z,27.48
2018-12-29T07:47:04.992Z,28.07
2018-12-29T07:49:46.024Z,28.25
2018-12-29T07:52:27.040Z,26.93
2018-12-29T07:55:08.059Z,26.80
2018-12-29T07:57:48.820Z,26.80
2018-12-29T08:00:29.546Z,28.42
2018-12-29T08:03:10.476Z,27.42
2018-12-29T08:05:50.964Z,28.37
2018-12-29T08:08:31.745Z,27.17
2018-12-29T08:11:12.946Z,28.38
2018-12-29T08:13:53.454Z,27.65
2018-12-29T08:16:34.364Z,30.57
2018-12-29T08:19:15.172Z,33.75
2018-12-29T08:21:55.929Z,34.48
2018-12-29T08:24:36.769Z,35.85
2018-12-29T08:27:17.240Z,36.88
2018-12-29T08:29:57.708Z,37.88
2018-12-29T08:32:38.448Z,38.78
2018-12-29T08:35:19.306Z,38.90
2018-12-29T08:37:59.984Z,37.30
2018-12-29T08:40:41.013Z,38.30
2018-12-29T08:43:22.111Z,38.33
2018-12-29T08:46:02.877Z,37.40
2018-12-29T08:48:43.616Z,34.35
2018-12-29T08:51:24.656Z,31.87
2018-12-29T08:54:05.384Z,31.77
2018-12-29T08:56:46.225Z,29.72
2018-12-29T08:59:26.867Z,30.10
2018-12-29T09:02:07.405Z,28.85
2018-12-29T09:04:48.159Z,28.17
2018-12-29T09:07:29.237Z,26.93
2018-12-29T09:10:10.305Z,27.00
2018-12-29T09:12:51.269Z,26.45
2018-12-29T09:15:32.242Z,25.82
2018-12-29T09:18:12.988Z,27.63
2018-12-29T09:20:53.837Z,25.70
2018-12-29T09:23:34.533Z,27.53
2018-12-29T09:26:15.444Z,27.00
2018-12-29T09:28:56.285Z,26.00
2018-12-29T09:31:36.884Z,26.12
2018-12-29T09:34:22.391Z,25.63
2018-12-29T09:37:00.400Z,25.75
2018-12-29T09:39:41.237Z,23.37
2018-12-29T09:42:22.053Z,23.55
2018-12-29T09:45:02.861Z,23.80
2018-12-29T09:47:43.441Z,22.75
2018-12-29T09:50:24.209Z,22.13
2018-12-29T09:53:05.253Z,21.93
2018-12-29T09:55:45.960Z,21.35
2018-12-29T09:58:26.993Z,21.80
2018-12-29T10:01:07.533Z,21.02
2018-12-29T10:03:48.411Z,21.68
2018-12-29T10:06:29.009Z,22.17
2018-12-29T10:09:09.544Z,21.57
2018-12-29T10:11:50.412Z,20.70
2018-12-29T10:14:30.985Z,22.37
2018-12-29T10:17:11.769Z,21.62
2018-12-29T10:19:52.636Z,21.73
2018-12-29T10:22:34.824Z,20.70
2018-12-29T10:25:15.423Z,20.57
2018-12-29T10:27:56.150Z,20.77
2018-12-29T10:30:37.061Z,21.35
2018-12-29T10:33:18.125Z,20.50
2018-12-29T10:35:59.072Z,21.10
2018-12-29T10:38:40.097Z,21.10
2018-12-29T10:41:20.811Z,21.47
2018-12-29T10:44:01.556Z,21.27
2018-12-29T10:46:42.358Z,21.23
2018-12-29T10:49:23.528Z,21.80
2018-12-29T10:52:04.108Z,21.27
2018-12-29T10:54:45.117Z,20.30
2018-12-29T10:57:25.633Z,20.55
2018-12-29T11:00:06.225Z,21.05
2018-12-29T11:02:47.140Z,20.10
2018-12-29T11:05:28.077Z,20.23
2018-12-29T11:08:09.163Z,21.02
2018-12-29T11:10:50.293Z,20.15
2018-12-29T11:13:30.894Z,20.25
2018-12-29T11:16:11.792Z,20.57
2018-12-29T11:18:52.765Z,20.27
2018-12-29T11:21:33.492Z,21.80
2018-12-29T11:24:14.575Z,20.55
2018-12-29T11:26:56.097Z,21.27
2018-12-29T11:29:37.574Z,21.40
2018-12-29T11:32:18.604Z,20.97
2018-12-29T11:34:59.272Z,20.40
2018-12-29T11:37:40.447Z,20.30
2018-12-29T11:40:23.371Z,18.92
2018-12-29T11:43:07.113Z,18.65
2018-12-29T11:45:47.832Z,19.05
2018-12-29T11:48:28.854Z,19.13
2018-12-29T11:51:10.075Z,18.42
2018-12-29T11:53:50.957Z,17.50
2018-12-29T11:56:32.012Z,17.75
2018-12-29T11:59:12.969Z,17.65
2018-12-29T12:01:53.829Z,18.62
2018-12-29T12:04:34.817Z,18.50
2018-12-29T12:07:15.947Z,18.82
2018-12-29T12:09:57.171Z,18.12
2018-12-29T12:12:38.119Z,18.07
2018-12-29T12:15:18.967Z,19.07
2018-12-29T12:17:59.831Z,19.12
2018-12-29T12:20:40.968Z,18.92
2018-12-29T12:23:21.900Z,19.15
2018-12-29T12:26:02.421Z,18.87
2018-12-29T12:28:43.321Z,20.25
2018-12-29T12:31:23.937Z,18.45
2018-12-29T12:34:04.701Z,20.32
2018-12-29T12:36:45.639Z,20.37
2018-12-29T12:39:26.380Z,20.48
2018-12-29T12:42:07.203Z,20.93
2018-12-29T12:44:48.624Z,20.10
2018-12-29T12:47:29.805Z,20.70
2018-12-29T12:50:10.636Z,19.40
2018-12-29T12:52:54.017Z,20.48
2018-12-29T12:55:35.231Z,19.77
2018-12-29T12:58:16.159Z,19.25
2018-12-29T13:00:56.795Z,19.65
2018-12-29T13:03:37.736Z,20.68
2018-12-29T13:06:18.791Z,19.42
2018-12-29T13:08:59.858Z,20.30
2018-12-29T13:11:40.940Z,20.27
2018-12-29T13:14:21.892Z,18.70
2018-12-29T13:17:02.718Z,18.25
2018-12-29T13:19:44.189Z,18.65
2018-12-29T13:22:25.005Z,18.32
2018-12-29T13:25:05.601Z,18.70
2018-12-29T13:27:46.460Z,19.52
2018-12-29T13:30:27.132Z,18.92
2018-12-29T13:33:08.590Z,18.77
2018-12-29T13:35:49.708Z,18.82
2018-12-29T13:38:30.576Z,18.45
2018-12-29T13:41:11.277Z,18.27
2018-12-29T13:43:52.416Z,17.75
2018-12-29T13:46:33.056Z,18.12
2018-12-29T13:49:13.545Z,20.12
2018-12-29T13:51:54.453Z,18.67
2018-12-29T13:54:35.173Z,18.70
2018-12-29T13:57:16.161Z,17.87
2018-12-29T13:59:56.973Z,17.95
2018-12-29T14:02:37.711Z,19.17
2018-12-29T14:05:18.499Z,18.48
2018-12-29T14:07:59.017Z,16.75
2018-12-29T14:10:39.526Z,17.12
2018-12-29T14:13:20.429Z,17.05
2018-12-29T14:16:01.297Z,18.10
2018-12-29T14:18:42.028Z,18.15
2018-12-29T14:21:24.249Z,17.20
2018-12-29T14:24:04.841Z,17.67
2018-12-29T14:26:45.657Z,18.20
2018-12-29T14:32:14.604Z,17.57
2018-12-29T14:34:55.522Z,18.17
2018-12-29T14:37:38.269Z,18.00
2018-12-29T14:40:19.592Z,19.02
2018-12-29T14:43:00.871Z,18.92
2018-12-29T14:45:42.009Z,18.77
2018-12-29T14:48:23.067Z,19.27
2018-12-29T14:51:03.696Z,18.82
2018-12-29T14:53:44.921Z,19.83
2018-12-29T14:56:25.872Z,19.27
2018-12-29T14:59:06.575Z,19.90
2018-12-29T15:01:47.480Z,20.07
2018-12-29T15:04:28.845Z,19.95
2018-12-29T15:07:10.017Z,19.52
2018-12-29T15:09:51.168Z,19.70
2018-12-29T15:12:32.281Z,18.70
2018-12-29T15:15:13.378Z,19.87
2018-12-29T15:17:54.233Z,21.65
2018-12-29T15:20:35.761Z,19.20
2018-12-29T15:23:16.712Z,21.07
2018-12-29T15:25:57.666Z,19.65
2018-12-29T15:28:38.528Z,19.92
2018-12-29T15:31:19.384Z,19.00
2018-12-29T15:34:00.749Z,19.15
2018-12-29T15:36:41.768Z,19.92
2018-12-29T15:39:22.532Z,19.55
2018-12-29T15:42:03.490Z,19.82
2018-12-29T15:44:44.496Z,19.05
2018-12-29T15:47:25.317Z,19.15
2018-12-29T15:50:06.261Z,19.17
2018-12-29T15:52:47.084Z,19.52
2018-12-29T15:55:27.911Z,18.90
2018-12-29T15:58:11.117Z,20.90
2018-12-29T16:00:52.313Z,20.12
2018-12-29T16:03:32.761Z,19.87
2018-12-29T16:06:13.575Z,19.98
2018-12-29T16:08:54.437Z,20.45
2018-12-29T16:11:35.486Z,19.77
2018-12-29T16:14:16.340Z,20.65
2018-12-29T16:16:57.320Z,19.87
2018-12-29T16:19:38.241Z,20.72
2018-12-29T16:22:19.558Z,21.02
2018-12-29T16:25:00.031Z,19.87
2018-12-29T16:27:41.594Z,20.50
2018-12-29T16:30:22.773Z,20.32
2018-12-29T16:33:03.752Z,21.45
2018-12-29T16:35:44.964Z,19.67
2018-12-29T16:38:25.901Z,19.13
2018-12-29T16:41:06.662Z,20.10
2018-12-29T16:43:47.547Z,21.00
2018-12-29T16:46:28.425Z,19.80
2018-12-29T16:49:09.377Z,19.37
2018-12-29T16:51:50.421Z,20.70
2018-12-29T16:54:31.351Z,19.57
2018-12-29T16:57:11.969Z,20.45
2018-12-29T16:59:52.490Z,19.90
2018-12-29T17:02:33.476Z,20.32
2018-12-29T17:05:14.332Z,20.48
2018-12-29T17:07:55.371Z,19.37
2018-12-29T17:10:36.102Z,20.30
2018-12-29T17:13:16.724Z,20.25
2018-12-29T17:15:57.624Z,20.65
2018-12-29T17:18:38.664Z,20.08
2018-12-29T17:21:19.422Z,20.40
2018-12-29T17:24:00.250Z,19.95
2018-12-29T17:26:41.001Z,18.65
2018-12-29T17:29:22.010Z,20.15
2018-12-29T17:32:02.727Z,20.45
2018-12-29T17:34:43.541Z,19.77
2018-12-29T17:37:24.418Z,19.05
2018-12-29T17:40:05.648Z,19.67
2018-12-29T17:42:46.643Z,19.02
2018-12-29T17:45:27.960Z,18.30
2018-12-29T17:48:09.681Z,19.45
2018-12-29T17:50:50.788Z,20.15
2018-12-29T17:53:31.846Z,19.98
2018-12-29T17:56:12.636Z,19.65
2018-12-29T17:58:53.437Z,20.02
2018-12-29T18:01:34.286Z,20.62
2018-12-29T18:04:15.474Z,20.23
2018-12-29T18:06:56.593Z,20.08
2018-12-29T18:09:37.476Z,19.77
2018-12-29T18:12:18.322Z,18.40
2018-12-29T18:14:59.025Z,19.30
2018-12-29T18:17:39.680Z,19.32
2018-12-29T18:20:20.679Z,19.67
2018-12-29T18:23:01.353Z,18.92
2018-12-29T18:25:41.988Z,20.27
2018-12-29T18:28:22.952Z,20.37
2018-12-29T18:31:03.927Z,19.83
2018-12-29T18:33:46.060Z,18.92
2018-12-29T18:36:26.723Z,19.45
2018-12-29T18:39:07.903Z,20.08
2018-12-29T18:41:48.659Z,20.40
2018-12-29T18:44:29.442Z,20.65
2018-12-29T18:47:10.441Z,19.57
2018-12-29T18:49:51.297Z,20.72
2018-12-29T18:52:32.175Z,20.48
2018-12-29T18:55:13.119Z,22.25
2018-12-29T18:57:54.097Z,21.80
2018-12-29T19:00:35.092Z,21.97
2018-12-29T19:03:15.697Z,21.07
2018-12-29T19:05:56.561Z,22.45
2018-12-29T19:08:37.687Z,21.35
2018-12-29T19:11:18.830Z,21.60
2018-12-29T19:13:59.587Z,21.95
2018-12-29T19:16:40.673Z,22.22
2018-12-29T19:19:22.096Z,21.12
2018-12-29T19:22:03.366Z,21.15
2018-12-29T19:24:44.257Z,22.25
2018-12-29T19:27:25.245Z,21.82
2018-12-29T19:30:06.597Z,24.10
2018-12-29T19:32:48.126Z,26.45
2018-12-29T19:35:29.053Z,26.85
2018-12-29T19:38:10.097Z,27.98
2018-12-29T19:40:51.330Z,28.35
2018-12-29T19:43:32.422Z,26.60
2018-12-29T19:46:12.991Z,27.98
2018-12-29T19:48:54.075Z,27.45
2018-12-29T19:51:35.659Z,27.48
2018-12-29T19:54:17.085Z,26.48
2018-12-29T19:56:58.446Z,28.10
2018-12-29T19:59:39.394Z,29.70
2018-12-29T20:02:20.456Z,28.70
2018-12-29T20:05:01.446Z,29.52
2018-12-29T20:07:42.235Z,28.70
2018-12-29T20:10:23.565Z,29.35
2018-12-29T20:13:04.592Z,29.42
2018-12-29T20:15:45.797Z,29.95
2018-12-29T20:18:27.306Z,28.73
2018-12-29T20:21:08.461Z,29.55
2018-12-29T20:23:49.388Z,28.95
2018-12-29T20:26:30.455Z,29.32
2018-12-29T20:29:11.376Z,29.95
2018-12-29T20:31:52.152Z,31.45
2018-12-29T20:34:32.965Z,30.08
2018-12-29T20:37:13.940Z,29.98
2018-12-29T20:39:55.092Z,31.48
2018-12-29T20:42:36.283Z,30.45
2018-12-29T20:45:18.333Z,31.97
2018-12-29T20:47:59.858Z,31.45
2018-12-29T20:50:40.784Z,31.12
2018-12-29T20:53:21.649Z,31.87
2018-12-29T20:56:03.253Z,32.25
2018-12-29T20:58:44.245Z,31.83
2018-12-29T21:01:25.325Z,32.55
2018-12-29T21:04:06.523Z,32.55
2018-12-29T21:06:48.330Z,33.88
2018-12-29T21:09:29.395Z,33.18
2018-12-29T21:12:10.209Z,33.27
2018-12-29T21:14:51.340Z,33.02
2018-12-29T21:17:32.436Z,32.80
2018-12-29T21:20:17.234Z,33.67
2018-12-29T21:22:56.540Z,32.28
2018-12-29T21:25:37.646Z,32.30
2018-12-29T21:28:18.541Z,31.30
2018-12-29T21:30:59.613Z,30.20
2018-12-29T21:33:40.559Z,31.73
2018-12-29T21:36:21.417Z,31.35
2018-12-29T21:39:02.320Z,31.55
2018-12-29T21:41:43.101Z,31.87
2018-12-29T21:44:24.028Z,30.77
2018-12-29T21:47:04.880Z,31.48
2018-12-29T21:49:45.629Z,32.03
2018-12-29T21:52:26.787Z,31.15
2018-12-29T21:55:07.604Z,31.93
2018-12-29T21:57:48.522Z,30.92
2018-12-29T22:00:29.595Z,31.65
2018-12-29T22:03:10.596Z,32.35
2018-12-29T22:05:51.392Z,32.50
2018-12-29T22:08:32.357Z,32.23
2018-12-29T22:11:13.505Z,33.47
2018-12-29T22:13:54.335Z,32.90
2018-12-29T22:16:35.500Z,33.80
2018-12-29T22:19:16.309Z,32.90
2018-12-29T22:21:57.169Z,33.30
2018-12-29T22:24:38.221Z,32.67
2018-12-29T22:27:19.368Z,32.63
2018-12-29T22:30:00.396Z,32.40
2018-12-29T22:32:41.225Z,32.95
2018-12-29T22:35:22.102Z,32.65
2018-12-29T22:38:03.240Z,33.42
2018-12-29T22:40:43.769Z,31.48
2018-12-29T22:43:24.625Z,32.53
2018-12-29T22:46:05.602Z,33.08
2018-12-29T22:48:46.645Z,32.55
2018-12-29T22:51:27.380Z,32.50
2018-12-29T22:54:08.440Z,32.90
2018-12-29T22:56:49.434Z,33.28
2018-12-29T22:59:30.447Z,32.85
2018-12-29T23:02:11.166Z,32.10
2018-12-29T23:04:51.908Z,32.45
2018-12-29T23:07:32.928Z,32.63
2018-12-29T23:10:13.904Z,33.67
2018-12-29T23:12:55.020Z,31.93
2018-12-29T23:15:36.025Z,32.65
2018-12-29T23:18:16.940Z,34.05
2018-12-29T23:20:57.704Z,34.33
2018-12-29T23:23:38.613Z,33.53
2018-12-29T23:26:19.660Z,35.05
2018-12-29T23:29:00.493Z,34.05
2018-12-29T23:31:40.932Z,35.92
2018-12-29T23:34:21.525Z,35.15
2018-12-29T23:37:02.361Z,34.73
2018-12-29T23:39:43.109Z,34.70
2018-12-29T23:42:23.868Z,32.58
2018-12-29T23:45:04.277Z,34.00
2018-12-29T23:47:45.033Z,34.15
2018-12-29T23:50:26.643Z,33.38
2018-12-29T23:53:07.688Z,32.20
2018-12-29T23:55:48.869Z,32.25
2018-12-29T23:58:29.811Z,32.88
